sensor_id;sensor_type;location;lat;lon;timestamp;P1;durP1;ratioP1;P2;durP2;ratioP2
7173;SDS011;3628;48.654;8.932;2023-02-15T00:01:26;17.87;;;10.90;;
7173;SDS011;3628;48.654;8.932;2023-02-15T00:03:52;16.03;;;9.97;;
7173;SDS011;3628;48.654;8.932;2023-02-15T00:06:18;15.47;;;9.90;;
7173;SDS011;3628;48.654;8.932;2023-02-15T00:08:43;15.90;;;9.30;;
7173;SDS011;3628;48.654;8.932;2023-02-15T00:11:10;18.03;;;10.50;;
7173;SDS011;3628;48.654;8.932;2023-02-15T00:13:38;14.40;;;9.37;;
7173;SDS011;3628;48.654;8.932;2023-02-15T00:16:07;15.97;;;9.63;;
7173;SDS011;3628;48.654;8.932;2023-02-15T00:18:37;16.67;;;9.70;;
7173;SDS011;3628;48.654;8.932;2023-02-15T00:21:09;13.93;;;9.60;;
7173;SDS011;3628;48.654;8.932;2023-02-15T00:23:35;15.43;;;9.57;;
7173;SDS011;3628;48.654;8.932;2023-02-15T00:26:08;14.20;;;9.03;;
7173;SDS011;3628;48.654;8.932;2023-02-15T00:28:36;25.17;;;9.90;;
7173;SDS011;3628;48.654;8.932;2023-02-15T00:31:11;21.90;;;10.67;;
7173;SDS011;3628;48.654;8.932;2023-02-15T00:33:38;13.23;;;8.80;;
7173;SDS011;3628;48.654;8.932;2023-02-15T00:36:04;16.80;;;10.00;;
7173;SDS011;3628;48.654;8.932;2023-02-15T00:38:32;15.67;;;9.53;;
7173;SDS011;3628;48.654;8.932;2023-02-15T00:40:59;18.57;;;9.57;;
7173;SDS011;3628;48.654;8.932;2023-02-15T00:43:26;18.00;;;10.10;;
7173;SDS011;3628;48.654;8.932;2023-02-15T00:45:53;14.33;;;9.40;;
7173;SDS011;3628;48.654;8.932;2023-02-15T00:48:19;13.50;;;9.37;;
7173;SDS011;3628;48.654;8.932;2023-02-15T00:50:46;20.77;;;10.10;;
7173;SDS011;3628;48.654;8.932;2023-02-15T00:53:14;16.90;;;10.17;;
7173;SDS011;3628;48.654;8.932;2023-02-15T00:55:40;16.93;;;9.97;;
7173;SDS011;3628;48.654;8.932;2023-02-15T00:58:06;18.67;;;10.40;;
7173;SDS011;3628;48.654;8.932;2023-02-15T01:00:32;18.67;;;9.97;;
7173;SDS011;3628;48.654;8.932;2023-02-15T01:02:57;18.80;;;10.47;;
7173;SDS011;3628;48.654;8.932;2023-02-15T01:05:23;16.00;;;10.10;;
7173;SDS011;3628;48.654;8.932;2023-02-15T01:07:48;15.80;;;9.90;;
7173;SDS011;3628;48.654;8.932;2023-02-15T01:10:14;17.10;;;9.70;;
7173;SDS011;3628;48.654;8.932;2023-02-15T01:12:40;13.60;;;8.77;;
7173;SDS011;3628;48.654;8.932;2023-02-15T01:15:05;15.83;;;9.50;;
7173;SDS011;3628;48.654;8.932;2023-02-15T01:17:31;13.87;;;9.10;;
7173;SDS011;3628;48.654;8.932;2023-02-15T01:19:57;14.73;;;9.70;;
7173;SDS011;3628;48.654;8.932;2023-02-15T01:22:22;13.80;;;9.27;;
7173;SDS011;3628;48.654;8.932;2023-02-15T01:24:51;13.73;;;8.97;;
7173;SDS011;3628;48.654;8.932;2023-02-15T01:27:17;15.77;;;9.20;;
7173;SDS011;3628;48.654;8.932;2023-02-15T01:29:42;17.57;;;9.63;;
7173;SDS011;3628;48.654;8.932;2023-02-15T01:32:08;15.87;;;9.57;;
7173;SDS011;3628;48.654;8.932;2023-02-15T01:34:34;14.43;;;9.43;;
7173;SDS011;3628;48.654;8.932;2023-02-15T01:36:59;16.70;;;9.17;;
7173;SDS011;3628;48.654;8.932;2023-02-15T01:39:25;16.30;;;9.27;;
7173;SDS011;3628;48.654;8.932;2023-02-15T01:41:50;15.73;;;8.90;;
7173;SDS011;3628;48.654;8.932;2023-02-15T01:47:12;15.00;;;9.17;;
7173;SDS011;3628;48.654;8.932;2023-02-15T01:49:40;14.23;;;8.83;;
7173;SDS011;3628;48.654;8.932;2023-02-15T01:52:08;15.07;;;8.97;;
7173;SDS011;3628;48.654;8.932;2023-02-15T01:54:36;27.87;;;10.13;;
7173;SDS011;3628;48.654;8.932;2023-02-15T01:57:11;14.80;;;9.20;;
7173;SDS011;3628;48.654;8.932;2023-02-15T01:59:40;14.90;;;8.83;;
7173;SDS011;3628;48.654;8.932;2023-02-15T02:02:09;13.13;;;8.77;;
7173;SDS011;3628;48.654;8.932;2023-02-15T02:04:42;16.30;;;9.13;;
7173;SDS011;3628;48.654;8.932;2023-02-15T02:07:13;13.23;;;8.67;;
7173;SDS011;3628;48.654;8.932;2023-02-15T02:09:42;12.07;;;8.17;;
7173;SDS011;3628;48.654;8.932;2023-02-15T02:12:09;15.50;;;9.30;;
7173;SDS011;3628;48.654;8.932;2023-02-15T02:14:35;16.23;;;9.90;;
7173;SDS011;3628;48.654;8.932;2023-02-15T02:17:21;14.93;;;9.47;;
7173;SDS011;3628;48.654;8.932;2023-02-15T02:20:10;13.90;;;9.40;;
7173;SDS011;3628;48.654;8.932;2023-02-15T02:22:43;21.03;;;9.37;;
7173;SDS011;3628;48.654;8.932;2023-02-15T02:33:54;14.17;;;8.97;;
7173;SDS011;3628;48.654;8.932;2023-02-15T02:39:05;15.30;;;9.47;;
7173;SDS011;3628;48.654;8.932;2023-02-15T02:41:49;15.00;;;9.17;;
7173;SDS011;3628;48.654;8.932;2023-02-15T02:49:35;17.60;;;9.67;;
7173;SDS011;3628;48.654;8.932;2023-02-15T02:52:03;15.53;;;9.60;;
7173;SDS011;3628;48.654;8.932;2023-02-15T02:54:31;14.27;;;9.27;;
7173;SDS011;3628;48.654;8.932;2023-02-15T02:57:00;15.87;;;9.70;;
7173;SDS011;3628;48.654;8.932;2023-02-15T02:59:33;13.23;;;8.90;;
7173;SDS011;3628;48.654;8.932;2023-02-15T03:02:11;20.00;;;9.20;;
7173;SDS011;3628;48.654;8.932;2023-02-15T03:04:43;13.80;;;8.93;;
7173;SDS011;3628;48.654;8.932;2023-02-15T03:07:12;13.87;;;8.60;;
7173;SDS011;3628;48.654;8.932;2023-02-15T03:09:47;30.93;;;9.90;;
7173;SDS011;3628;48.654;8.932;2023-02-15T03:12:19;13.63;;;9.23;;
7173;SDS011;3628;48.654;8.932;2023-02-15T03:14:57;38.57;;;9.90;;
7173;SDS011;3628;48.654;8.932;2023-02-15T03:17:32;20.00;;;9.47;;
7173;SDS011;3628;48.654;8.932;2023-02-15T03:20:05;14.47;;;8.80;;
7173;SDS011;3628;48.654;8.932;2023-02-15T03:22:37;39.60;;;10.60;;
7173;SDS011;3628;48.654;8.932;2023-02-15T03:25:11;18.37;;;9.90;;
7173;SDS011;3628;48.654;8.932;2023-02-15T03:27:45;23.67;;;10.27;;
7173;SDS011;3628;48.654;8.932;2023-02-15T03:30:14;13.10;;;8.27;;
7173;SDS011;3628;48.654;8.932;2023-02-15T03:32:41;17.13;;;8.57;;
7173;SDS011;3628;48.654;8.932;2023-02-15T03:35:09;16.33;;;9.73;;
7173;SDS011;3628;48.654;8.932;2023-02-15T03:37:39;14.27;;;8.57;;
7173;SDS011;3628;48.654;8.932;2023-02-15T03:45:31;13.37;;;8.60;;
7173;SDS011;3628;48.654;8.932;2023-02-15T03:47:57;14.57;;;8.87;;
7173;SDS011;3628;48.654;8.932;2023-02-15T03:50:26;25.00;;;9.40;;
7173;SDS011;3628;48.654;8.932;2023-02-15T03:53:13;17.47;;;9.07;;
7173;SDS011;3628;48.654;8.932;2023-02-15T03:55:46;69.47;;;11.57;;
7173;SDS011;3628;48.654;8.932;2023-02-15T03:58:12;258.90;;;20.30;;
7173;SDS011;3628;48.654;8.932;2023-02-15T04:01:00;159.03;;;17.07;;
7173;SDS011;3628;48.654;8.932;2023-02-15T04:03:57;51.17;;;10.17;;
7173;SDS011;3628;48.654;8.932;2023-02-15T04:06:26;64.43;;;11.77;;
7173;SDS011;3628;48.654;8.932;2023-02-15T04:08:51;244.47;;;22.87;;
7173;SDS011;3628;48.654;8.932;2023-02-15T04:11:35;59.33;;;10.77;;
7173;SDS011;3628;48.654;8.932;2023-02-15T04:14:01;11.57;;;8.10;;
7173;SDS011;3628;48.654;8.932;2023-02-15T04:16:46;13.03;;;7.97;;
7173;SDS011;3628;48.654;8.932;2023-02-15T04:19:11;12.83;;;8.10;;
7173;SDS011;3628;48.654;8.932;2023-02-15T04:21:56;12.60;;;8.03;;
7173;SDS011;3628;48.654;8.932;2023-02-15T04:24:40;12.70;;;8.47;;
7173;SDS011;3628;48.654;8.932;2023-02-15T04:27:24;14.40;;;8.40;;
7173;SDS011;3628;48.654;8.932;2023-02-15T04:29:49;49.70;;;10.10;;
7173;SDS011;3628;48.654;8.932;2023-02-15T04:32:15;12.27;;;8.03;;
7173;SDS011;3628;48.654;8.932;2023-02-15T04:34:40;12.63;;;8.07;;
7173;SDS011;3628;48.654;8.932;2023-02-15T04:37:06;17.23;;;8.20;;
7173;SDS011;3628;48.654;8.932;2023-02-15T04:39:31;11.40;;;7.47;;
7173;SDS011;3628;48.654;8.932;2023-02-15T04:41:57;11.27;;;7.33;;
7173;SDS011;3628;48.654;8.932;2023-02-15T04:44:23;11.07;;;8.17;;
7173;SDS011;3628;48.654;8.932;2023-02-15T04:46:48;14.13;;;8.97;;
7173;SDS011;3628;48.654;8.932;2023-02-15T04:49:14;15.30;;;9.30;;
7173;SDS011;3628;48.654;8.932;2023-02-15T04:51:39;23.20;;;9.67;;
7173;SDS011;3628;48.654;8.932;2023-02-15T04:54:05;13.70;;;8.60;;
7173;SDS011;3628;48.654;8.932;2023-02-15T04:56:31;62.73;;;11.40;;
7173;SDS011;3628;48.654;8.932;2023-02-15T04:58:58;20.77;;;9.33;;
7173;SDS011;3628;48.654;8.932;2023-02-15T05:01:23;18.77;;;10.00;;
7173;SDS011;3628;48.654;8.932;2023-02-15T05:03:49;51.07;;;11.47;;
7173;SDS011;3628;48.654;8.932;2023-02-15T05:06:14;15.13;;;8.53;;
7173;SDS011;3628;48.654;8.932;2023-02-15T05:08:40;26.20;;;9.43;;
7173;SDS011;3628;48.654;8.932;2023-02-15T05:11:05;14.13;;;8.60;;
7173;SDS011;3628;48.654;8.932;2023-02-15T05:13:31;12.87;;;8.30;;
7173;SDS011;3628;48.654;8.932;2023-02-15T05:15:56;11.33;;;8.00;;
7173;SDS011;3628;48.654;8.932;2023-02-15T05:18:22;12.63;;;8.27;;
7173;SDS011;3628;48.654;8.932;2023-02-15T05:20:48;12.07;;;8.47;;
7173;SDS011;3628;48.654;8.932;2023-02-15T05:23:14;10.90;;;8.30;;
7173;SDS011;3628;48.654;8.932;2023-02-15T05:25:40;16.93;;;8.67;;
7173;SDS011;3628;48.654;8.932;2023-02-15T05:28:25;14.73;;;8.53;;
7173;SDS011;3628;48.654;8.932;2023-02-15T05:33:36;14.83;;;8.17;;
7173;SDS011;3628;48.654;8.932;2023-02-15T05:36:02;14.57;;;8.07;;
7173;SDS011;3628;48.654;8.932;2023-02-15T05:38:28;85.13;;;13.47;;
7173;SDS011;3628;48.654;8.932;2023-02-15T05:40:54;80.13;;;13.40;;
7173;SDS011;3628;48.654;8.932;2023-02-15T05:43:19;12.13;;;8.10;;
7173;SDS011;3628;48.654;8.932;2023-02-15T05:45:46;11.07;;;7.73;;
7173;SDS011;3628;48.654;8.932;2023-02-15T05:48:16;12.37;;;8.10;;
7173;SDS011;3628;48.654;8.932;2023-02-15T05:50:43;13.57;;;8.23;;
7173;SDS011;3628;48.654;8.932;2023-02-15T05:53:09;10.63;;;7.20;;
7173;SDS011;3628;48.654;8.932;2023-02-15T05:55:38;10.90;;;7.07;;
7173;SDS011;3628;48.654;8.932;2023-02-15T05:58:04;12.50;;;7.60;;
7173;SDS011;3628;48.654;8.932;2023-02-15T06:00:30;11.93;;;7.93;;
7173;SDS011;3628;48.654;8.932;2023-02-15T06:02:55;13.03;;;7.33;;
7173;SDS011;3628;48.654;8.932;2023-02-15T06:05:21;12.93;;;7.93;;
7173;SDS011;3628;48.654;8.932;2023-02-15T06:07:47;13.20;;;8.37;;
7173;SDS011;3628;48.654;8.932;2023-02-15T06:10:13;13.17;;;8.47;;
7173;SDS011;3628;48.654;8.932;2023-02-15T06:12:38;11.67;;;7.40;;
7173;SDS011;3628;48.654;8.932;2023-02-15T06:15:04;13.83;;;8.13;;
7173;SDS011;3628;48.654;8.932;2023-02-15T06:17:30;12.33;;;8.00;;
7173;SDS011;3628;48.654;8.932;2023-02-15T06:19:56;11.33;;;8.17;;
7173;SDS011;3628;48.654;8.932;2023-02-15T06:22:21;16.93;;;8.27;;
7173;SDS011;3628;48.654;8.932;2023-02-15T06:24:47;18.27;;;8.50;;
7173;SDS011;3628;48.654;8.932;2023-02-15T06:27:13;12.33;;;7.80;;
7173;SDS011;3628;48.654;8.932;2023-02-15T06:29:38;10.63;;;6.77;;
7173;SDS011;3628;48.654;8.932;2023-02-15T06:32:04;11.00;;;7.50;;
7173;SDS011;3628;48.654;8.932;2023-02-15T06:34:30;11.30;;;7.77;;
7173;SDS011;3628;48.654;8.932;2023-02-15T06:36:56;14.27;;;8.30;;
7173;SDS011;3628;48.654;8.932;2023-02-15T06:39:22;11.53;;;7.57;;
7173;SDS011;3628;48.654;8.932;2023-02-15T06:41:47;12.20;;;7.80;;
7173;SDS011;3628;48.654;8.932;2023-02-15T06:44:13;16.07;;;8.97;;
7173;SDS011;3628;48.654;8.932;2023-02-15T06:46:38;15.73;;;9.00;;
7173;SDS011;3628;48.654;8.932;2023-02-15T06:49:04;15.07;;;9.13;;
7173;SDS011;3628;48.654;8.932;2023-02-15T06:51:30;16.53;;;9.77;;
7173;SDS011;3628;48.654;8.932;2023-02-15T06:53:55;19.23;;;12.20;;
7173;SDS011;3628;48.654;8.932;2023-02-15T06:56:21;21.47;;;13.33;;
7173;SDS011;3628;48.654;8.932;2023-02-15T06:58:46;43.47;;;15.93;;
7173;SDS011;3628;48.654;8.932;2023-02-15T07:01:14;24.03;;;13.57;;
7173;SDS011;3628;48.654;8.932;2023-02-15T07:03:40;19.97;;;11.87;;
7173;SDS011;3628;48.654;8.932;2023-02-15T07:06:06;20.47;;;10.07;;
7173;SDS011;3628;48.654;8.932;2023-02-15T07:08:33;12.77;;;8.03;;
7173;SDS011;3628;48.654;8.932;2023-02-15T07:11:00;12.87;;;7.73;;
7173;SDS011;3628;48.654;8.932;2023-02-15T07:13:45;12.13;;;7.93;;
7173;SDS011;3628;48.654;8.932;2023-02-15T07:16:11;12.63;;;7.47;;
7173;SDS011;3628;48.654;8.932;2023-02-15T07:18:37;11.67;;;7.27;;
7173;SDS011;3628;48.654;8.932;2023-02-15T07:21:03;10.10;;;7.00;;
7173;SDS011;3628;48.654;8.932;2023-02-15T07:23:29;10.63;;;7.50;;
7173;SDS011;3628;48.654;8.932;2023-02-15T07:25:58;10.60;;;6.73;;
7173;SDS011;3628;48.654;8.932;2023-02-15T07:28:24;12.03;;;7.10;;
7173;SDS011;3628;48.654;8.932;2023-02-15T07:30:50;11.53;;;6.77;;
7173;SDS011;3628;48.654;8.932;2023-02-15T07:33:16;10.97;;;7.03;;
7173;SDS011;3628;48.654;8.932;2023-02-15T07:35:55;10.50;;;6.87;;
7173;SDS011;3628;48.654;8.932;2023-02-15T07:38:23;12.37;;;7.27;;
7173;SDS011;3628;48.654;8.932;2023-02-15T07:40:49;11.07;;;7.30;;
7173;SDS011;3628;48.654;8.932;2023-02-15T07:43:15;10.70;;;6.90;;
7173;SDS011;3628;48.654;8.932;2023-02-15T07:45:40;9.73;;;6.50;;
7173;SDS011;3628;48.654;8.932;2023-02-15T07:48:06;10.87;;;6.77;;
7173;SDS011;3628;48.654;8.932;2023-02-15T07:50:32;10.00;;;6.40;;
7173;SDS011;3628;48.654;8.932;2023-02-15T07:53:00;12.20;;;7.07;;
7173;SDS011;3628;48.654;8.932;2023-02-15T07:55:27;10.07;;;6.90;;
7173;SDS011;3628;48.654;8.932;2023-02-15T07:57:52;9.60;;;6.73;;
7173;SDS011;3628;48.654;8.932;2023-02-15T08:00:19;9.80;;;6.63;;
7173;SDS011;3628;48.654;8.932;2023-02-15T08:02:50;9.70;;;6.27;;
7173;SDS011;3628;48.654;8.932;2023-02-15T08:05:37;9.93;;;6.30;;
7173;SDS011;3628;48.654;8.932;2023-02-15T08:08:03;9.97;;;6.37;;
7173;SDS011;3628;48.654;8.932;2023-02-15T08:10:28;10.33;;;6.57;;
7173;SDS011;3628;48.654;8.932;2023-02-15T08:13:13;10.83;;;6.97;;
7173;SDS011;3628;48.654;8.932;2023-02-15T08:15:38;26.20;;;13.97;;
7173;SDS011;3628;48.654;8.932;2023-02-15T08:18:04;15.83;;;10.50;;
7173;SDS011;3628;48.654;8.932;2023-02-15T08:20:29;10.83;;;7.30;;
7173;SDS011;3628;48.654;8.932;2023-02-15T08:22:55;12.37;;;7.83;;
7173;SDS011;3628;48.654;8.932;2023-02-15T08:25:21;13.57;;;10.73;;
7173;SDS011;3628;48.654;8.932;2023-02-15T08:27:46;11.03;;;7.40;;
7173;SDS011;3628;48.654;8.932;2023-02-15T08:30:12;10.10;;;6.40;;
7173;SDS011;3628;48.654;8.932;2023-02-15T08:32:39;10.23;;;6.67;;
7173;SDS011;3628;48.654;8.932;2023-02-15T08:35:04;9.37;;;6.57;;
7173;SDS011;3628;48.654;8.932;2023-02-15T08:37:30;11.67;;;6.40;;
7173;SDS011;3628;48.654;8.932;2023-02-15T08:39:56;8.70;;;6.33;;
7173;SDS011;3628;48.654;8.932;2023-02-15T08:42:21;8.30;;;5.63;;
7173;SDS011;3628;48.654;8.932;2023-02-15T08:44:47;8.20;;;5.97;;
7173;SDS011;3628;48.654;8.932;2023-02-15T08:47:15;11.63;;;6.37;;
7173;SDS011;3628;48.654;8.932;2023-02-15T08:49:40;8.23;;;5.43;;
7173;SDS011;3628;48.654;8.932;2023-02-15T08:52:06;9.73;;;6.60;;
7173;SDS011;3628;48.654;8.932;2023-02-15T08:54:32;11.20;;;6.50;;
7173;SDS011;3628;48.654;8.932;2023-02-15T08:56:57;8.53;;;5.80;;
7173;SDS011;3628;48.654;8.932;2023-02-15T08:59:23;21.97;;;15.90;;
7173;SDS011;3628;48.654;8.932;2023-02-15T09:01:51;8.03;;;6.07;;
7173;SDS011;3628;48.654;8.932;2023-02-15T09:04:17;7.37;;;5.50;;
7173;SDS011;3628;48.654;8.932;2023-02-15T09:06:43;8.33;;;5.37;;
7173;SDS011;3628;48.654;8.932;2023-02-15T09:09:11;22.97;;;14.00;;
7173;SDS011;3628;48.654;8.932;2023-02-15T09:11:37;7.63;;;5.30;;
7173;SDS011;3628;48.654;8.932;2023-02-15T09:14:07;10.67;;;5.80;;
7173;SDS011;3628;48.654;8.932;2023-02-15T09:16:35;10.90;;;8.17;;
7173;SDS011;3628;48.654;8.932;2023-02-15T09:19:02;5.53;;;4.57;;
7173;SDS011;3628;48.654;8.932;2023-02-15T09:21:32;6.77;;;5.00;;
7173;SDS011;3628;48.654;8.932;2023-02-15T09:23:59;8.83;;;5.27;;
7173;SDS011;3628;48.654;8.932;2023-02-15T09:26:27;7.90;;;4.70;;
7173;SDS011;3628;48.654;8.932;2023-02-15T09:28:56;9.37;;;5.30;;
7173;SDS011;3628;48.654;8.932;2023-02-15T09:31:25;9.67;;;6.50;;
7173;SDS011;3628;48.654;8.932;2023-02-15T09:33:52;9.37;;;5.50;;
7173;SDS011;3628;48.654;8.932;2023-02-15T09:36:19;6.47;;;4.90;;
7173;SDS011;3628;48.654;8.932;2023-02-15T09:38:47;7.53;;;5.60;;
7173;SDS011;3628;48.654;8.932;2023-02-15T09:49:43;10.00;;;6.03;;
7173;SDS011;3628;48.654;8.932;2023-02-15T10:00:50;5.97;;;4.97;;
7173;SDS011;3628;48.654;8.932;2023-02-15T10:03:32;9.33;;;4.87;;
7173;SDS011;3628;48.654;8.932;2023-02-15T10:08:52;6.53;;;4.80;;
7173;SDS011;3628;48.654;8.932;2023-02-15T10:27:55;7.23;;;4.87;;
7173;SDS011;3628;48.654;8.932;2023-02-15T10:30:32;10.93;;;4.93;;
7173;SDS011;3628;48.654;8.932;2023-02-15T10:33:16;9.00;;;4.93;;
7173;SDS011;3628;48.654;8.932;2023-02-15T10:36:25;10.20;;;4.87;;
7173;SDS011;3628;48.654;8.932;2023-02-15T10:39:25;11.87;;;4.73;;
7173;SDS011;3628;48.654;8.932;2023-02-15T10:41:55;8.27;;;4.80;;
7173;SDS011;3628;48.654;8.932;2023-02-15T10:50:40;10.63;;;4.97;;
7173;SDS011;3628;48.654;8.932;2023-02-15T10:53:30;7.27;;;4.67;;
7173;SDS011;3628;48.654;8.932;2023-02-15T10:56:27;7.27;;;4.30;;
7173;SDS011;3628;48.654;8.932;2023-02-15T11:01:49;5.77;;;4.13;;
7173;SDS011;3628;48.654;8.932;2023-02-15T11:07:17;5.40;;;4.00;;
7173;SDS011;3628;48.654;8.932;2023-02-15T11:12:27;11.30;;;4.33;;
7173;SDS011;3628;48.654;8.932;2023-02-15T11:14:58;7.67;;;3.87;;
7173;SDS011;3628;48.654;8.932;2023-02-15T11:17:35;5.87;;;3.93;;
7173;SDS011;3628;48.654;8.932;2023-02-15T11:22:52;9.00;;;3.40;;
7173;SDS011;3628;48.654;8.932;2023-02-15T11:25:19;5.00;;;3.63;;
7173;SDS011;3628;48.654;8.932;2023-02-15T11:27:54;6.90;;;3.80;;
7173;SDS011;3628;48.654;8.932;2023-02-15T11:30:21;6.20;;;4.00;;
7173;SDS011;3628;48.654;8.932;2023-02-15T11:32:50;7.50;;;3.40;;
7173;SDS011;3628;48.654;8.932;2023-02-15T11:35:41;8.20;;;3.57;;
7173;SDS011;3628;48.654;8.932;2023-02-15T11:38:22;9.63;;;3.83;;
7173;SDS011;3628;48.654;8.932;2023-02-15T11:46:13;9.07;;;3.87;;
7173;SDS011;3628;48.654;8.932;2023-02-15T11:48:39;7.13;;;4.10;;
7173;SDS011;3628;48.654;8.932;2023-02-15T11:51:08;6.07;;;3.10;;
7173;SDS011;3628;48.654;8.932;2023-02-15T11:53:40;3.40;;;2.70;;
7173;SDS011;3628;48.654;8.932;2023-02-15T11:56:14;6.57;;;2.53;;
7173;SDS011;3628;48.654;8.932;2023-02-15T11:58:49;3.70;;;2.70;;
7173;SDS011;3628;48.654;8.932;2023-02-15T12:01:30;5.47;;;3.50;;
7173;SDS011;3628;48.654;8.932;2023-02-15T12:03:59;7.90;;;3.60;;
7173;SDS011;3628;48.654;8.932;2023-02-15T12:09:33;5.17;;;3.20;;
7173;SDS011;3628;48.654;8.932;2023-02-15T12:14:50;4.60;;;3.23;;
7173;SDS011;3628;48.654;8.932;2023-02-15T12:17:18;8.37;;;3.53;;
7173;SDS011;3628;48.654;8.932;2023-02-15T12:19:46;4.77;;;3.33;;
7173;SDS011;3628;48.654;8.932;2023-02-15T12:22:25;8.43;;;3.23;;
7173;SDS011;3628;48.654;8.932;2023-02-15T12:24:56;4.57;;;3.30;;
7173;SDS011;3628;48.654;8.932;2023-02-15T12:27:45;5.07;;;2.60;;
7173;SDS011;3628;48.654;8.932;2023-02-15T12:30:31;5.60;;;2.37;;
7173;SDS011;3628;48.654;8.932;2023-02-15T12:33:05;4.03;;;1.90;;
7173;SDS011;3628;48.654;8.932;2023-02-15T12:35:41;2.50;;;1.83;;
7173;SDS011;3628;48.654;8.932;2023-02-15T12:40:34;2.40;;;1.73;;
7173;SDS011;3628;48.654;8.932;2023-02-15T12:43:00;4.73;;;1.97;;
7173;SDS011;3628;48.654;8.932;2023-02-15T12:45:33;4.83;;;2.17;;
7173;SDS011;3628;48.654;8.932;2023-02-15T12:50:32;5.53;;;2.23;;
7173;SDS011;3628;48.654;8.932;2023-02-15T12:53:33;5.63;;;1.97;;
7173;SDS011;3628;48.654;8.932;2023-02-15T12:55:59;2.40;;;2.07;;
7173;SDS011;3628;48.654;8.932;2023-02-15T12:58:36;5.07;;;2.37;;
7173;SDS011;3628;48.654;8.932;2023-02-15T13:01:11;1.77;;;1.63;;
7173;SDS011;3628;48.654;8.932;2023-02-15T13:03:51;5.07;;;2.77;;
7173;SDS011;3628;48.654;8.932;2023-02-15T13:06:21;3.93;;;1.90;;
7173;SDS011;3628;48.654;8.932;2023-02-15T13:08:51;2.20;;;1.90;;
7173;SDS011;3628;48.654;8.932;2023-02-15T13:11:26;5.37;;;2.47;;
7173;SDS011;3628;48.654;8.932;2023-02-15T13:14:00;2.73;;;1.97;;
7173;SDS011;3628;48.654;8.932;2023-02-15T13:19:08;1.93;;;1.50;;
7173;SDS011;3628;48.654;8.932;2023-02-15T13:21:38;3.23;;;1.87;;
7173;SDS011;3628;48.654;8.932;2023-02-15T13:24:10;4.00;;;2.20;;
7173;SDS011;3628;48.654;8.932;2023-02-15T13:26:47;2.93;;;1.97;;
7173;SDS011;3628;48.654;8.932;2023-02-15T13:29:31;4.03;;;1.60;;
7173;SDS011;3628;48.654;8.932;2023-02-15T13:32:05;1.97;;;1.60;;
7173;SDS011;3628;48.654;8.932;2023-02-15T13:34:37;2.60;;;1.80;;
7173;SDS011;3628;48.654;8.932;2023-02-15T13:39:54;3.03;;;1.80;;
7173;SDS011;3628;48.654;8.932;2023-02-15T13:42:59;2.70;;;1.77;;
7173;SDS011;3628;48.654;8.932;2023-02-15T13:45:53;2.83;;;2.07;;
7173;SDS011;3628;48.654;8.932;2023-02-15T13:57:22;2.67;;;1.77;;
7173;SDS011;3628;48.654;8.932;2023-02-15T14:02:38;5.20;;;1.70;;
7173;SDS011;3628;48.654;8.932;2023-02-15T14:16:33;4.97;;;1.70;;
7173;SDS011;3628;48.654;8.932;2023-02-15T14:19:51;3.13;;;2.27;;
7173;SDS011;3628;48.654;8.932;2023-02-15T14:22:38;3.37;;;2.10;;
7173;SDS011;3628;48.654;8.932;2023-02-15T14:25:24;4.13;;;2.30;;
7173;SDS011;3628;48.654;8.932;2023-02-15T14:30:45;7.97;;;3.60;;
7173;SDS011;3628;48.654;8.932;2023-02-15T14:35:39;10.97;;;4.00;;
7173;SDS011;3628;48.654;8.932;2023-02-15T14:38:12;8.37;;;4.27;;
7173;SDS011;3628;48.654;8.932;2023-02-15T14:40:51;8.87;;;4.80;;
7173;SDS011;3628;48.654;8.932;2023-02-15T14:46:10;8.10;;;4.47;;
7173;SDS011;3628;48.654;8.932;2023-02-15T14:49:35;8.40;;;4.77;;
7173;SDS011;3628;48.654;8.932;2023-02-15T14:56:43;8.40;;;5.03;;
7173;SDS011;3628;48.654;8.932;2023-02-15T14:59:13;13.00;;;5.67;;
7173;SDS011;3628;48.654;8.932;2023-02-15T15:01:41;6.57;;;5.00;;
7173;SDS011;3628;48.654;8.932;2023-02-15T15:04:22;7.03;;;4.97;;
7173;SDS011;3628;48.654;8.932;2023-02-15T15:07:02;11.17;;;4.97;;
7173;SDS011;3628;48.654;8.932;2023-02-15T15:09:33;9.60;;;4.60;;
7173;SDS011;3628;48.654;8.932;2023-02-15T15:14:45;8.90;;;5.00;;
7173;SDS011;3628;48.654;8.932;2023-02-15T15:17:12;7.50;;;5.00;;
7173;SDS011;3628;48.654;8.932;2023-02-15T15:19:59;7.87;;;5.00;;
7173;SDS011;3628;48.654;8.932;2023-02-15T15:22:27;11.17;;;5.70;;
7173;SDS011;3628;48.654;8.932;2023-02-15T15:24:55;11.03;;;5.83;;
7173;SDS011;3628;48.654;8.932;2023-02-15T15:27:45;11.23;;;5.50;;
7173;SDS011;3628;48.654;8.932;2023-02-15T15:32:41;9.20;;;5.13;;
7173;SDS011;3628;48.654;8.932;2023-02-15T15:38:26;8.87;;;5.40;;
7173;SDS011;3628;48.654;8.932;2023-02-15T15:41:32;9.10;;;5.87;;
7173;SDS011;3628;48.654;8.932;2023-02-15T15:44:11;7.27;;;5.50;;
7173;SDS011;3628;48.654;8.932;2023-02-15T15:49:54;10.47;;;5.40;;
7173;SDS011;3628;48.654;8.932;2023-02-15T15:52:23;13.60;;;6.77;;
7173;SDS011;3628;48.654;8.932;2023-02-15T15:54:55;10.90;;;6.60;;
7173;SDS011;3628;48.654;8.932;2023-02-15T15:59:57;7.53;;;5.50;;
7173;SDS011;3628;48.654;8.932;2023-02-15T16:02:26;8.17;;;5.93;;
7173;SDS011;3628;48.654;8.932;2023-02-15T16:04:52;8.00;;;5.90;;
7173;SDS011;3628;48.654;8.932;2023-02-15T16:12:49;10.07;;;5.67;;
7173;SDS011;3628;48.654;8.932;2023-02-15T16:15:19;8.67;;;5.20;;
7173;SDS011;3628;48.654;8.932;2023-02-15T16:18:04;9.27;;;4.47;;
7173;SDS011;3628;48.654;8.932;2023-02-15T16:20:31;15.97;;;6.27;;
7173;SDS011;3628;48.654;8.932;2023-02-15T16:26:11;15.93;;;7.53;;
7173;SDS011;3628;48.654;8.932;2023-02-15T16:28:47;22.30;;;8.03;;
7173;SDS011;3628;48.654;8.932;2023-02-15T16:31:15;13.77;;;7.33;;
7173;SDS011;3628;48.654;8.932;2023-02-15T16:33:41;19.30;;;8.03;;
7173;SDS011;3628;48.654;8.932;2023-02-15T16:36:12;13.87;;;7.57;;
7173;SDS011;3628;48.654;8.932;2023-02-15T16:41:17;12.63;;;6.87;;
7173;SDS011;3628;48.654;8.932;2023-02-15T16:43:49;12.20;;;7.63;;
7173;SDS011;3628;48.654;8.932;2023-02-15T16:46:36;13.67;;;8.20;;
7173;SDS011;3628;48.654;8.932;2023-02-15T16:49:06;13.97;;;9.90;;
7173;SDS011;3628;48.654;8.932;2023-02-15T16:51:40;12.67;;;8.87;;
7173;SDS011;3628;48.654;8.932;2023-02-15T16:54:13;14.57;;;8.23;;
7173;SDS011;3628;48.654;8.932;2023-02-15T16:56:44;10.57;;;6.67;;
7173;SDS011;3628;48.654;8.932;2023-02-15T16:59:16;14.70;;;6.00;;
7173;SDS011;3628;48.654;8.932;2023-02-15T17:01:52;8.97;;;6.03;;
7173;SDS011;3628;48.654;8.932;2023-02-15T17:07:00;14.27;;;6.00;;
7173;SDS011;3628;48.654;8.932;2023-02-15T17:09:53;9.37;;;5.30;;
7173;SDS011;3628;48.654;8.932;2023-02-15T17:15:30;12.70;;;5.50;;
7173;SDS011;3628;48.654;8.932;2023-02-15T17:18:03;12.03;;;5.17;;
7173;SDS011;3628;48.654;8.932;2023-02-15T17:20:41;13.70;;;5.93;;
7173;SDS011;3628;48.654;8.932;2023-02-15T17:26:12;9.57;;;5.30;;
7173;SDS011;3628;48.654;8.932;2023-02-15T17:28:56;11.50;;;5.90;;
7173;SDS011;3628;48.654;8.932;2023-02-15T17:31:25;8.63;;;5.47;;
7173;SDS011;3628;48.654;8.932;2023-02-15T17:33:53;12.70;;;5.30;;
7173;SDS011;3628;48.654;8.932;2023-02-15T17:36:21;13.70;;;5.57;;
7173;SDS011;3628;48.654;8.932;2023-02-15T17:41:30;11.63;;;5.80;;
7173;SDS011;3628;48.654;8.932;2023-02-15T17:43:59;9.73;;;5.77;;
7173;SDS011;3628;48.654;8.932;2023-02-15T17:46:25;12.00;;;6.20;;
7173;SDS011;3628;48.654;8.932;2023-02-15T17:48:53;10.40;;;6.40;;
7173;SDS011;3628;48.654;8.932;2023-02-15T17:51:20;18.83;;;9.87;;
7173;SDS011;3628;48.654;8.932;2023-02-15T17:53:47;16.63;;;9.77;;
7173;SDS011;3628;48.654;8.932;2023-02-15T17:56:35;18.10;;;9.40;;
7173;SDS011;3628;48.654;8.932;2023-02-15T17:59:02;22.50;;;9.60;;
7173;SDS011;3628;48.654;8.932;2023-02-15T18:01:32;13.60;;;8.90;;
7173;SDS011;3628;48.654;8.932;2023-02-15T18:04:18;13.07;;;7.67;;
7173;SDS011;3628;48.654;8.932;2023-02-15T18:07:02;18.77;;;8.67;;
7173;SDS011;3628;48.654;8.932;2023-02-15T18:09:47;13.43;;;7.13;;
7173;SDS011;3628;48.654;8.932;2023-02-15T18:12:31;12.07;;;5.73;;
7173;SDS011;3628;48.654;8.932;2023-02-15T18:14:58;12.20;;;6.57;;
7173;SDS011;3628;48.654;8.932;2023-02-15T18:17:27;8.83;;;6.43;;
7173;SDS011;3628;48.654;8.932;2023-02-15T18:20:02;15.27;;;6.70;;
7173;SDS011;3628;48.654;8.932;2023-02-15T18:22:31;12.17;;;6.27;;
7173;SDS011;3628;48.654;8.932;2023-02-15T18:24:57;9.00;;;5.63;;